createdAt,value
2023-04-01T00:01:52.480Z,21.40
2023-04-01T00:06:55.141Z,21.50
2023-04-01T00:11:57.755Z,20.60
2023-04-01T00:17:00.431Z,18.48
2023-04-01T00:22:03.217Z,20.75
2023-04-01T00:27:06.218Z,20.55
2023-04-01T00:32:09.080Z,22.02
2023-04-01T00:37:12.475Z,23.45
2023-04-01T00:42:15.289Z,19.63
2023-04-01T00:47:18.565Z,19.85
2023-04-01T00:52:26.512Z,18.35
2023-04-01T00:57:37.727Z,19.25
2023-04-01T01:02:44.151Z,24.17
2023-04-01T01:08:13.598Z,18.98
2023-04-01T01:13:27.671Z,20.20
2023-04-01T01:18:53.225Z,20.00
2023-04-01T01:24:23.610Z,19.13
2023-04-01T01:30:05.008Z,17.38
2023-04-01T01:35:32.324Z,18.47
2023-04-01T01:40:39.066Z,17.92
2023-04-01T01:45:49.308Z,19.67
2023-04-01T01:50:53.014Z,18.35
2023-04-01T01:55:56.385Z,19.80
2023-04-01T02:01:05.968Z,17.98
2023-04-01T02:06:17.062Z,20.08
2023-04-01T02:11:27.558Z,17.83
2023-04-01T02:16:36.480Z,16.92
2023-04-01T02:21:41.661Z,16.05
2023-04-01T02:26:46.810Z,18.75
2023-04-01T02:31:51.723Z,18.05
2023-04-01T02:36:56.520Z,17.40
2023-04-01T02:41:59.297Z,16.38
2023-04-01T02:47:02.089Z,16.67
2023-04-01T02:52:04.990Z,16.20
2023-04-01T02:57:07.892Z,17.35
2023-04-01T03:02:10.797Z,17.65
2023-04-01T03:07:14.222Z,17.25
2023-04-01T03:12:16.976Z,19.38
2023-04-01T03:17:26.129Z,18.23
2023-04-01T03:22:29.350Z,18.80
2023-04-01T03:27:31.981Z,17.90
2023-04-01T03:32:34.750Z,18.35
2023-04-01T03:37:37.970Z,17.50
2023-04-01T03:42:40.834Z,19.17
2023-04-01T03:47:43.838Z,17.38
2023-04-01T03:52:46.692Z,15.38
2023-04-01T03:57:49.451Z,19.45
2023-04-01T04:02:56.097Z,17.58
2023-04-01T04:08:04.792Z,15.77
2023-04-01T04:13:08.422Z,16.55
2023-04-01T04:18:15.744Z,15.65
2023-04-01T04:23:19.383Z,17.05
2023-04-01T04:28:22.155Z,15.45
2023-04-01T04:33:26.645Z,13.35
2023-04-01T04:38:30.174Z,15.57
2023-04-01T04:43:32.967Z,15.60
2023-04-01T04:48:36.638Z,27.48
2023-04-01T04:53:39.233Z,14.55
2023-04-01T04:58:41.871Z,14.75
2023-04-01T05:03:50.930Z,16.60
2023-04-01T05:08:53.629Z,16.35
2023-04-01T05:13:56.563Z,15.77
2023-04-01T05:18:59.334Z,17.25
2023-04-01T05:24:02.152Z,17.30
2023-04-01T05:29:07.605Z,15.85
2023-04-01T05:34:10.324Z,16.17
2023-04-01T05:39:12.930Z,17.88
2023-04-01T05:44:16.387Z,16.20
2023-04-01T05:49:18.988Z,19.42
2023-04-01T05:54:22.012Z,17.40
2023-04-01T05:59:24.767Z,17.23
2023-04-01T06:04:33.963Z,19.15
2023-04-01T06:09:37.043Z,20.63
2023-04-01T06:15:04.963Z,18.90
2023-04-01T06:20:17.527Z,19.55
2023-04-01T06:25:39.061Z,19.17
2023-04-01T06:30:44.973Z,21.13
2023-04-01T06:36:13.278Z,22.85
2023-04-01T06:41:46.269Z,21.73
2023-04-01T06:47:24.037Z,20.77
2023-04-01T06:53:24.937Z,18.85
2023-04-01T06:58:57.500Z,20.23
2023-04-01T07:04:06.426Z,16.70
2023-04-01T07:09:17.475Z,21.63
2023-04-01T07:14:48.956Z,15.20
2023-04-01T07:20:03.109Z,15.65
2023-04-01T07:25:14.802Z,14.35
2023-04-01T07:30:23.151Z,15.27
2023-04-01T07:36:03.058Z,24.55
2023-04-01T07:41:31.700Z,15.23
2023-04-01T07:46:59.123Z,15.98
2023-04-01T07:52:10.380Z,13.57
2023-04-01T07:57:56.597Z,13.20
2023-04-01T08:03:18.465Z,14.05
2023-04-01T08:08:47.557Z,13.80
2023-04-01T08:14:14.216Z,17.98
2023-04-01T08:19:58.019Z,17.35
2023-04-01T08:25:08.900Z,17.83
2023-04-01T08:30:26.023Z,21.48
2023-04-01T08:35:39.991Z,26.92
2023-04-01T08:41:02.156Z,22.65
2023-04-01T08:46:51.748Z,15.98
2023-04-01T08:51:54.361Z,16.83
2023-04-01T08:57:18.835Z,15.50
2023-04-01T09:02:47.510Z,20.25
2023-04-01T09:08:26.892Z,23.20
2023-04-01T09:14:02.804Z,23.55
2023-04-01T09:19:44.453Z,23.63
2023-04-01T09:25:08.327Z,22.17
2023-04-01T09:30:34.122Z,17.42
2023-04-01T09:35:43.982Z,16.17
2023-04-01T09:41:03.080Z,12.48
2023-04-01T09:46:27.868Z,13.10
2023-04-01T09:51:43.189Z,10.05
2023-04-01T09:56:59.238Z,11.52
2023-04-01T10:02:20.590Z,12.82
2023-04-01T10:08:02.242Z,9.77
2023-04-01T10:13:17.152Z,9.68
2023-04-01T10:19:04.946Z,9.50
2023-04-01T10:24:40.387Z,9.52
2023-04-01T10:30:30.632Z,9.20
2023-04-01T10:35:37.108Z,11.23
2023-04-01T10:41:07.935Z,9.55
2023-04-01T10:46:56.662Z,9.15
2023-04-01T10:52:17.736Z,9.32
2023-04-01T10:57:57.032Z,10.73
2023-04-01T11:04:00.265Z,10.32
2023-04-01T11:09:26.749Z,8.75
2023-04-01T11:14:58.173Z,8.93
2023-04-01T11:20:38.750Z,16.47
2023-04-01T11:25:44.553Z,7.57
2023-04-01T11:31:36.372Z,8.98
2023-04-01T11:37:10.661Z,11.93
2023-04-01T11:42:45.043Z,5.78
2023-04-01T11:48:27.204Z,10.63
2023-04-01T11:53:54.204Z,9.38
2023-04-01T11:59:24.661Z,9.50
2023-04-01T12:04:59.192Z,9.73
2023-04-01T12:10:26.539Z,5.25
2023-04-01T12:15:49.737Z,8.70
2023-04-01T12:21:01.787Z,11.57
2023-04-01T12:26:25.222Z,7.30
2023-04-01T12:32:05.665Z,7.22
2023-04-01T12:37:17.626Z,9.77
2023-04-01T12:47:25.859Z,9.18
2023-04-01T12:52:50.602Z,9.75
2023-04-01T12:57:59.000Z,10.70
2023-04-01T13:03:20.994Z,6.00
2023-04-01T13:13:35.772Z,10.55
2023-04-01T13:19:04.921Z,11.15
2023-04-01T13:24:25.689Z,7.55
2023-04-01T13:29:44.530Z,11.30
2023-04-01T13:35:21.359Z,7.40
2023-04-01T13:41:02.223Z,11.48
2023-04-01T13:46:32.540Z,12.65
2023-04-01T13:51:53.406Z,16.90
2023-04-01T13:57:22.114Z,13.13
2023-04-01T14:02:44.494Z,10.38
2023-04-01T14:07:47.486Z,13.68
2023-04-01T14:13:09.023Z,16.15
2023-04-01T14:18:38.933Z,12.50
2023-04-01T14:24:15.017Z,12.23
2023-04-01T14:29:43.894Z,12.65
2023-04-01T14:35:24.241Z,16.02
2023-04-01T14:40:58.838Z,12.98
2023-04-01T14:46:36.000Z,12.38
2023-04-01T14:51:40.651Z,11.38
2023-04-01T14:57:13.526Z,14.57
2023-04-01T15:02:34.366Z,13.02
2023-04-01T15:07:56.015Z,14.52
2023-04-01T15:13:31.303Z,14.48
2023-04-01T15:18:40.508Z,11.63
2023-04-01T15:23:51.723Z,16.40
2023-04-01T15:29:31.769Z,12.47
2023-04-01T15:35:12.177Z,13.70
2023-04-01T15:40:20.774Z,13.75
2023-04-01T15:45:43.180Z,16.55
2023-04-01T15:50:57.065Z,14.85
2023-04-01T15:56:42.258Z,17.25
2023-04-01T16:02:12.263Z,17.05
2023-04-01T16:07:31.074Z,13.63
2023-04-01T16:12:36.902Z,13.40
2023-04-01T16:18:23.303Z,15.35
2023-04-01T16:23:44.886Z,17.42
2023-04-01T16:29:28.980Z,12.73
2023-04-01T16:34:42.627Z,14.85
2023-04-01T16:40:12.987Z,13.88
2023-04-01T16:45:45.396Z,13.85
2023-04-01T16:51:00.560Z,13.48
2023-04-01T16:56:03.702Z,12.80
2023-04-01T17:01:17.468Z,19.35
2023-04-01T17:06:49.448Z,12.07
2023-04-01T17:11:58.226Z,14.95
2023-04-01T17:17:16.103Z,12.80
2023-04-01T17:22:45.616Z,12.55
2023-04-01T17:27:54.135Z,12.30
2023-04-01T17:33:24.723Z,11.98
2023-04-01T17:39:01.597Z,14.30
2023-04-01T17:44:16.629Z,15.90
2023-04-01T17:49:49.402Z,14.75
2023-04-01T17:55:19.033Z,14.13
2023-04-01T18:00:38.374Z,14.80
2023-04-01T18:06:04.031Z,14.93
2023-04-01T18:11:43.676Z,16.27
2023-04-01T18:17:27.807Z,15.75
2023-04-01T18:22:39.914Z,17.48
